sensor_id;sensor_type;location;lat;lon;timestamp;pressure;altitude;pressure_sealevel;temperature;humidity
75656;BME280;64252;51.094;13.714;2022-11-28T00:02:09;100862.56;;;3.02;83.63
75656;BME280;64252;51.094;13.714;2022-11-28T00:04:35;100866.69;;;3.05;83.00
75656;BME280;64252;51.094;13.714;2022-11-28T00:07:00;100867.81;;;3.04;83.11
75656;BME280;64252;51.094;13.714;2022-11-28T00:09:26;100859.44;;;3.04;83.43
75656;BME280;64252;51.094;13.714;2022-11-28T00:11:51;100850.25;;;2.95;83.85
75656;BME280;64252;51.094;13.714;2022-11-28T00:14:18;100855.16;;;2.98;83.59
75656;BME280;64252;51.094;13.714;2022-11-28T00:16:44;100838.44;;;2.98;83.00
75656;BME280;64252;51.094;13.714;2022-11-28T00:19:10;100849.28;;;3.08;82.35
75656;BME280;64252;51.094;13.714;2022-11-28T00:21:36;100836.97;;;3.09;82.35
75656;BME280;64252;51.094;13.714;2022-11-28T00:24:02;100836.16;;;3.00;82.85
75656;BME280;64252;51.094;13.714;2022-11-28T00:26:33;100831.41;;;3.00;82.81
75656;BME280;64252;51.094;13.714;2022-11-28T00:29:00;100833.84;;;3.02;82.25
75656;BME280;64252;51.094;13.714;2022-11-28T00:31:29;100825.31;;;2.98;82.27
75656;BME280;64252;51.094;13.714;2022-11-28T00:33:55;100809.06;;;3.09;81.79
75656;BME280;64252;51.094;13.714;2022-11-28T00:36:23;100812.53;;;3.06;81.50
75656;BME280;64252;51.094;13.714;2022-11-28T00:38:50;100812.03;;;3.04;81.69
75656;BME280;64252;51.094;13.714;2022-11-28T00:41:17;100806.75;;;3.02;81.94
75656;BME280;64252;51.094;13.714;2022-11-28T00:43:44;100814.50;;;3.14;80.88
75656;BME280;64252;51.094;13.714;2022-11-28T00:46:12;100806.75;;;3.11;80.98
75656;BME280;64252;51.094;13.714;2022-11-28T00:48:38;100814.66;;;3.09;81.58
75656;BME280;64252;51.094;13.714;2022-11-28T00:51:11;100811.84;;;3.09;80.43
75656;BME280;64252;51.094;13.714;2022-11-28T00:53:38;100800.19;;;3.07;80.91
75656;BME280;64252;51.094;13.714;2022-11-28T00:56:07;100798.38;;;3.11;81.00
75656;BME280;64252;51.094;13.714;2022-11-28T00:58:34;100794.63;;;3.07;80.80
75656;BME280;64252;51.094;13.714;2022-11-28T01:01:10;100785.44;;;3.06;80.98
75656;BME280;64252;51.094;13.714;2022-11-28T01:03:36;100802.03;;;3.20;80.74
75656;BME280;64252;51.094;13.714;2022-11-28T01:06:02;100795.75;;;3.23;80.26
75656;BME280;64252;51.094;13.714;2022-11-28T01:08:28;100780.84;;;3.19;80.92
75656;BME280;64252;51.094;13.714;2022-11-28T01:10:53;100787.56;;;3.18;80.73
75656;BME280;64252;51.094;13.714;2022-11-28T01:13:19;100788.06;;;3.20;79.61
75656;BME280;64252;51.094;13.714;2022-11-28T01:15:44;100790.84;;;3.20;79.73
75656;BME280;64252;51.094;13.714;2022-11-28T01:18:10;100786.06;;;3.21;79.87
75656;BME280;64252;51.094;13.714;2022-11-28T01:20:35;100782.28;;;3.25;79.96
75656;BME280;64252;51.094;13.714;2022-11-28T01:23:01;100780.34;;;3.17;80.10
75656;BME280;64252;51.094;13.714;2022-11-28T01:25:27;100770.81;;;3.18;80.18
75656;BME280;64252;51.094;13.714;2022-11-28T01:27:52;100781.66;;;3.28;79.80
75656;BME280;64252;51.094;13.714;2022-11-28T01:30:18;100769.00;;;3.22;80.24
75656;BME280;64252;51.094;13.714;2022-11-28T01:32:43;100772.94;;;3.21;80.61
75656;BME280;64252;51.094;13.714;2022-11-28T01:35:09;100770.81;;;3.18;80.32
75656;BME280;64252;51.094;13.714;2022-11-28T01:37:35;100764.75;;;3.16;79.75
75656;BME280;64252;51.094;13.714;2022-11-28T01:40:00;100758.34;;;3.24;80.04
75656;BME280;64252;51.094;13.714;2022-11-28T01:42:26;100764.13;;;3.11;80.75
75656;BME280;64252;51.094;13.714;2022-11-28T01:47:20;100761.59;;;3.26;79.64
75656;BME280;64252;51.094;13.714;2022-11-28T01:49:48;100746.00;;;3.25;79.23
75656;BME280;64252;51.094;13.714;2022-11-28T01:52:17;100751.13;;;3.23;80.25
75656;BME280;64252;51.094;13.714;2022-11-28T01:54:46;100751.28;;;3.18;79.42
75656;BME280;64252;51.094;13.714;2022-11-28T01:57:16;100762.13;;;3.20;80.27
75656;BME280;64252;51.094;13.714;2022-11-28T01:59:54;100754.88;;;3.27;79.59
75656;BME280;64252;51.094;13.714;2022-11-28T02:02:41;100744.03;;;3.26;79.63
75656;BME280;64252;51.094;13.714;2022-11-28T02:05:08;100754.56;;;3.12;80.25
75656;BME280;64252;51.094;13.714;2022-11-28T02:07:34;100739.97;;;3.23;79.44
75656;BME280;64252;51.094;13.714;2022-11-28T02:10:01;100730.94;;;3.18;79.33
75656;BME280;64252;51.094;13.714;2022-11-28T02:37:34;100705.84;;;3.09;79.82
75656;BME280;64252;51.094;13.714;2022-11-28T02:40:36;100702.72;;;3.02;80.28
75656;BME280;64252;51.094;13.714;2022-11-28T02:43:12;100703.06;;;3.09;79.71
75656;BME280;64252;51.094;13.714;2022-11-28T02:51:12;100692.91;;;2.96;80.23
75656;BME280;64252;51.094;13.714;2022-11-28T02:53:40;100688.13;;;3.05;79.77
75656;BME280;64252;51.094;13.714;2022-11-28T02:56:09;100693.19;;;3.12;79.58
75656;BME280;64252;51.094;13.714;2022-11-28T02:58:36;100693.88;;;3.08;79.58
75656;BME280;64252;51.094;13.714;2022-11-28T03:01:02;100685.81;;;3.07;79.54
75656;BME280;64252;51.094;13.714;2022-11-28T03:03:54;100680.91;;;3.04;79.39
75656;BME280;64252;51.094;13.714;2022-11-28T03:06:46;100690.28;;;2.99;79.80
75656;BME280;64252;51.094;13.714;2022-11-28T03:09:36;100683.56;;;2.92;80.03
75656;BME280;64252;51.094;13.714;2022-11-28T03:14:59;100678.63;;;2.97;80.33
75656;BME280;64252;51.094;13.714;2022-11-28T03:23:08;100674.72;;;2.90;80.61
75656;BME280;64252;51.094;13.714;2022-11-28T03:28:13;100658.97;;;2.85;80.72
75656;BME280;64252;51.094;13.714;2022-11-28T03:33:31;100653.41;;;2.77;81.16
75656;BME280;64252;51.094;13.714;2022-11-28T03:36:08;100650.78;;;2.72;81.33
75656;BME280;64252;51.094;13.714;2022-11-28T03:38:40;100650.63;;;2.77;81.27
75656;BME280;64252;51.094;13.714;2022-11-28T03:41:15;100650.78;;;2.72;81.28
75656;BME280;64252;51.094;13.714;2022-11-28T03:43:51;100647.84;;;2.68;81.69
75656;BME280;64252;51.094;13.714;2022-11-28T03:46:21;100657.19;;;2.72;81.37
75656;BME280;64252;51.094;13.714;2022-11-28T03:48:51;100654.72;;;2.71;81.94
75656;BME280;64252;51.094;13.714;2022-11-28T03:51:32;100646.22;;;2.67;81.71
75656;BME280;64252;51.094;13.714;2022-11-28T03:54:13;100651.47;;;2.51;82.46
75656;BME280;64252;51.094;13.714;2022-11-28T03:56:49;100655.38;;;2.50;82.66
75656;BME280;64252;51.094;13.714;2022-11-28T03:59:30;100652.75;;;2.45;83.19
75656;BME280;64252;51.094;13.714;2022-11-28T04:02:29;100647.84;;;2.42;82.91
75656;BME280;64252;51.094;13.714;2022-11-28T04:05:22;100655.41;;;2.33;83.41
75656;BME280;64252;51.094;13.714;2022-11-28T04:10:34;100658.69;;;2.35;83.26
75656;BME280;64252;51.094;13.714;2022-11-28T04:13:52;100646.72;;;2.35;83.53
75656;BME280;64252;51.094;13.714;2022-11-28T04:18:29;100644.91;;;2.30;84.45
75656;BME280;64252;51.094;13.714;2022-11-28T04:21:29;100642.59;;;2.32;83.87
75656;BME280;64252;51.094;13.714;2022-11-28T04:24:09;100641.97;;;2.44;83.51
75656;BME280;64252;51.094;13.714;2022-11-28T04:26:46;100635.72;;;2.38;84.08
75656;BME280;64252;51.094;13.714;2022-11-28T04:29:17;100634.75;;;2.34;84.07
75656;BME280;64252;51.094;13.714;2022-11-28T04:31:45;100637.84;;;2.41;84.03
75656;BME280;64252;51.094;13.714;2022-11-28T04:34:16;100642.13;;;2.39;84.30
75656;BME280;64252;51.094;13.714;2022-11-28T04:36:43;100642.28;;;2.42;84.25
75656;BME280;64252;51.094;13.714;2022-11-28T04:39:14;100635.06;;;2.41;84.11
75656;BME280;64252;51.094;13.714;2022-11-28T04:42:19;100635.72;;;2.38;84.25
75656;BME280;64252;51.094;13.714;2022-11-28T04:44:51;100624.09;;;2.36;84.42
75656;BME280;64252;51.094;13.714;2022-11-28T04:47:17;100628.50;;;2.37;84.78
75656;BME280;64252;51.094;13.714;2022-11-28T04:49:43;100632.44;;;2.36;84.88
75656;BME280;64252;51.094;13.714;2022-11-28T04:52:33;100620.66;;;2.39;84.79
75656;BME280;64252;51.094;13.714;2022-11-28T04:55:09;100628.34;;;2.34;84.78
75656;BME280;64252;51.094;13.714;2022-11-28T04:57:40;100611.78;;;2.37;85.13
75656;BME280;64252;51.094;13.714;2022-11-28T05:00:10;100612.78;;;2.41;84.61
75656;BME280;64252;51.094;13.714;2022-11-28T05:02:38;100605.56;;;2.40;84.87
75656;BME280;64252;51.094;13.714;2022-11-28T05:05:18;100606.56;;;2.44;84.98
75656;BME280;64252;51.094;13.714;2022-11-28T05:07:44;100620.47;;;2.36;84.94
75656;BME280;64252;51.094;13.714;2022-11-28T05:10:11;100623.47;;;2.31;85.44
75656;BME280;64252;51.094;13.714;2022-11-28T05:12:38;100621.00;;;2.29;85.38
75656;BME280;64252;51.094;13.714;2022-11-28T05:15:05;100620.31;;;2.32;85.18
75656;BME280;64252;51.094;13.714;2022-11-28T05:17:30;100618.69;;;2.31;85.65
75656;BME280;64252;51.094;13.714;2022-11-28T05:19:56;100609.69;;;2.26;86.38
75656;BME280;64252;51.094;13.714;2022-11-28T05:22:22;100616.06;;;2.26;85.79
75656;BME280;64252;51.094;13.714;2022-11-28T05:24:47;100611.97;;;2.24;86.29
75656;BME280;64252;51.094;13.714;2022-11-28T05:27:13;100610.47;;;2.26;86.68
75656;BME280;64252;51.094;13.714;2022-11-28T05:29:39;100615.91;;;2.22;86.32
75656;BME280;64252;51.094;13.714;2022-11-28T05:32:10;100604.09;;;2.17;86.85
75656;BME280;64252;51.094;13.714;2022-11-28T05:34:36;100609.81;;;2.12;87.36
75656;BME280;64252;51.094;13.714;2022-11-28T05:37:03;100607.22;;;2.24;86.68
75656;BME280;64252;51.094;13.714;2022-11-28T05:39:29;100598.03;;;2.24;86.25
75656;BME280;64252;51.094;13.714;2022-11-28T05:41:55;100600.97;;;2.27;86.40
75656;BME280;64252;51.094;13.714;2022-11-28T05:44:20;100598.19;;;2.27;86.15
75656;BME280;64252;51.094;13.714;2022-11-28T05:46:46;100597.06;;;2.28;87.07
75656;BME280;64252;51.094;13.714;2022-11-28T05:49:12;100598.34;;;2.22;86.40
75656;BME280;64252;51.094;13.714;2022-11-28T05:51:38;100594.78;;;2.30;86.25
75656;BME280;64252;51.094;13.714;2022-11-28T05:54:04;100589.34;;;2.34;86.04
75656;BME280;64252;51.094;13.714;2022-11-28T05:56:29;100585.25;;;2.31;85.87
75656;BME280;64252;51.094;13.714;2022-11-28T05:58:55;100584.25;;;2.27;86.55
75656;BME280;64252;51.094;13.714;2022-11-28T06:01:23;100583.28;;;2.32;86.38
75656;BME280;64252;51.094;13.714;2022-11-28T06:03:50;100581.97;;;2.29;86.06
75656;BME280;64252;51.094;13.714;2022-11-28T06:06:20;100575.09;;;2.35;85.85
75656;BME280;64252;51.094;13.714;2022-11-28T06:08:48;100582.97;;;2.33;86.25
75656;BME280;64252;51.094;13.714;2022-11-28T06:11:15;100574.91;;;2.40;85.83
75656;BME280;64252;51.094;13.714;2022-11-28T06:13:45;100580.31;;;2.45;85.66
75656;BME280;64252;51.094;13.714;2022-11-28T06:16:22;100572.09;;;2.57;84.86
75656;BME280;64252;51.094;13.714;2022-11-28T06:18:58;100571.44;;;2.60;85.01
75656;BME280;64252;51.094;13.714;2022-11-28T06:21:24;100564.38;;;2.63;84.98
75656;BME280;64252;51.094;13.714;2022-11-28T06:23:51;100564.53;;;2.67;84.88
75656;BME280;64252;51.094;13.714;2022-11-28T06:26:19;100558.28;;;2.70;84.57
75656;BME280;64252;51.094;13.714;2022-11-28T06:28:45;100567.63;;;2.74;84.60
75656;BME280;64252;51.094;13.714;2022-11-28T06:31:14;100567.16;;;2.72;85.00
75656;BME280;64252;51.094;13.714;2022-11-28T06:33:39;100568.13;;;2.76;84.70
75656;BME280;64252;51.094;13.714;2022-11-28T06:36:06;100568.94;;;2.76;84.53
75656;BME280;64252;51.094;13.714;2022-11-28T06:38:32;100563.66;;;2.83;84.37
75656;BME280;64252;51.094;13.714;2022-11-28T06:41:00;100563.34;;;2.85;84.12
75656;BME280;64252;51.094;13.714;2022-11-28T06:43:26;100558.53;;;2.94;83.46
75656;BME280;64252;51.094;13.714;2022-11-28T06:45:52;100561.81;;;2.96;83.10
75656;BME280;64252;51.094;13.714;2022-11-28T06:48:18;100560.31;;;2.98;83.76
75656;BME280;64252;51.094;13.714;2022-11-28T06:50:43;100563.75;;;3.04;83.18
75656;BME280;64252;51.094;13.714;2022-11-28T06:53:09;100558.16;;;3.04;83.16
75656;BME280;64252;51.094;13.714;2022-11-28T06:55:35;100552.59;;;3.04;83.52
75656;BME280;64252;51.094;13.714;2022-11-28T06:58:00;100551.25;;;3.10;83.29
75656;BME280;64252;51.094;13.714;2022-11-28T07:00:26;100548.13;;;3.12;83.31
75656;BME280;64252;51.094;13.714;2022-11-28T07:02:51;100550.56;;;3.13;82.52
75656;BME280;64252;51.094;13.714;2022-11-28T07:05:17;100543.66;;;3.19;82.90
75656;BME280;64252;51.094;13.714;2022-11-28T07:07:44;100544.31;;;3.16;82.82
75656;BME280;64252;51.094;13.714;2022-11-28T07:10:10;100538.75;;;3.16;83.28
75656;BME280;64252;51.094;13.714;2022-11-28T07:12:36;100550.88;;;3.20;82.56
75656;BME280;64252;51.094;13.714;2022-11-28T07:15:05;100539.03;;;3.23;82.23
75656;BME280;64252;51.094;13.714;2022-11-28T07:17:30;100523.59;;;3.26;82.32
75656;BME280;64252;51.094;13.714;2022-11-28T07:19:56;100525.56;;;3.25;82.59
75656;BME280;64252;51.094;13.714;2022-11-28T07:22:21;100528.16;;;3.30;81.65
75656;BME280;64252;51.094;13.714;2022-11-28T07:24:47;100518.94;;;3.38;81.98
75656;BME280;64252;51.094;13.714;2022-11-28T07:27:13;100524.53;;;3.38;81.80
75656;BME280;64252;51.094;13.714;2022-11-28T07:29:38;100519.41;;;3.40;81.33
75656;BME280;64252;51.094;13.714;2022-11-28T07:32:04;100514.31;;;3.42;82.08
75656;BME280;64252;51.094;13.714;2022-11-28T07:34:32;100511.31;;;3.47;81.52
75656;BME280;64252;51.094;13.714;2022-11-28T07:36:59;100512.94;;;3.48;81.73
75656;BME280;64252;51.094;13.714;2022-11-28T07:39:25;100517.84;;;3.51;81.11
75656;BME280;64252;51.094;13.714;2022-11-28T07:41:51;100509.16;;;3.53;81.23
75656;BME280;64252;51.094;13.714;2022-11-28T07:44:16;100515.69;;;3.57;81.28
75656;BME280;64252;51.094;13.714;2022-11-28T07:46:45;100493.81;;;3.59;80.61
75656;BME280;64252;51.094;13.714;2022-11-28T07:49:12;100496.41;;;3.64;80.33
75656;BME280;64252;51.094;13.714;2022-11-28T07:51:39;100500.03;;;3.65;80.65
75656;BME280;64252;51.094;13.714;2022-11-28T07:54:06;100497.03;;;3.70;80.36
75656;BME280;64252;51.094;13.714;2022-11-28T07:56:34;100499.50;;;3.71;80.04
75656;BME280;64252;51.094;13.714;2022-11-28T07:59:00;100507.03;;;3.71;80.41
75656;BME280;64252;51.094;13.714;2022-11-28T08:01:28;100481.09;;;3.70;79.56
75656;BME280;64252;51.094;13.714;2022-11-28T08:03:54;100465.16;;;3.71;79.43
75656;BME280;64252;51.094;13.714;2022-11-28T08:06:28;100474.69;;;3.70;79.84
75656;BME280;64252;51.094;13.714;2022-11-28T08:08:56;100494.72;;;3.72;79.93
75656;BME280;64252;51.094;13.714;2022-11-28T08:11:23;100493.91;;;3.71;80.19
75656;BME280;64252;51.094;13.714;2022-11-28T08:13:50;100490.75;;;3.73;80.14
75656;BME280;64252;51.094;13.714;2022-11-28T08:16:19;100482.88;;;3.75;79.52
75656;BME280;64252;51.094;13.714;2022-11-28T08:18:46;100480.81;;;3.84;79.99
75656;BME280;64252;51.094;13.714;2022-11-28T08:21:14;100476.16;;;3.88;79.49
75656;BME280;64252;51.094;13.714;2022-11-28T08:23:40;100486.31;;;3.92;79.69
75656;BME280;64252;51.094;13.714;2022-11-28T08:26:08;100481.22;;;3.94;79.58
75656;BME280;64252;51.094;13.714;2022-11-28T08:28:34;100479.50;;;4.02;79.15
75656;BME280;64252;51.094;13.714;2022-11-28T08:31:10;100486.72;;;4.03;78.75
75656;BME280;64252;51.094;13.714;2022-11-28T08:33:37;100486.16;;;4.10;78.55
75656;BME280;64252;51.094;13.714;2022-11-28T08:36:07;100495.13;;;4.15;78.93
75656;BME280;64252;51.094;13.714;2022-11-28T08:38:33;100489.91;;;4.14;79.02
75656;BME280;64252;51.094;13.714;2022-11-28T08:41:01;100503.09;;;4.25;78.43
75656;BME280;64252;51.094;13.714;2022-11-28T08:43:26;100492.63;;;4.22;78.25
75656;BME280;64252;51.094;13.714;2022-11-28T08:45:52;100484.91;;;4.19;77.92
75656;BME280;64252;51.094;13.714;2022-11-28T08:48:17;100481.31;;;4.19;78.18
75656;BME280;64252;51.094;13.714;2022-11-28T08:50:46;100480.50;;;4.18;77.93
75656;BME280;64252;51.094;13.714;2022-11-28T08:53:12;100484.44;;;4.17;78.29
75656;BME280;64252;51.094;13.714;2022-11-28T08:55:40;100481.16;;;4.15;77.83
75656;BME280;64252;51.094;13.714;2022-11-28T08:58:06;100493.28;;;4.19;77.91
75656;BME280;64252;51.094;13.714;2022-11-28T09:00:31;100489.09;;;4.13;77.80
75656;BME280;64252;51.094;13.714;2022-11-28T09:02:57;100489.34;;;4.20;78.30
75656;BME280;64252;51.094;13.714;2022-11-28T09:05:22;100487.69;;;4.19;77.77
75656;BME280;64252;51.094;13.714;2022-11-28T09:07:48;100484.03;;;4.27;78.22
75656;BME280;64252;51.094;13.714;2022-11-28T09:10:13;100493.59;;;4.38;77.37
75656;BME280;64252;51.094;13.714;2022-11-28T09:12:40;100493.59;;;4.38;77.27
75656;BME280;64252;51.094;13.714;2022-11-28T09:15:06;100496.53;;;4.42;76.88
75656;BME280;64252;51.094;13.714;2022-11-28T09:17:31;100497.59;;;4.50;77.19
75656;BME280;64252;51.094;13.714;2022-11-28T09:19:57;100502.47;;;4.53;76.79
75656;BME280;64252;51.094;13.714;2022-11-28T09:22:22;100489.19;;;4.50;75.77
75656;BME280;64252;51.094;13.714;2022-11-28T09:24:48;100489.69;;;4.52;76.75
75656;BME280;64252;51.094;13.714;2022-11-28T09:27:13;100489.78;;;4.55;76.95
75656;BME280;64252;51.094;13.714;2022-11-28T09:29:39;100482.69;;;4.58;76.62
75656;BME280;64252;51.094;13.714;2022-11-28T09:32:04;100482.00;;;4.61;76.20
75656;BME280;64252;51.094;13.714;2022-11-28T09:34:30;100496.69;;;4.70;75.73
75656;BME280;64252;51.094;13.714;2022-11-28T09:36:55;100488.06;;;4.63;77.18
75656;BME280;64252;51.094;13.714;2022-11-28T09:39:21;100483.16;;;4.72;76.39
75656;BME280;64252;51.094;13.714;2022-11-28T09:45:10;100465.22;;;4.85;75.71
75656;BME280;64252;51.094;13.714;2022-11-28T09:47:38;100469.44;;;4.91;74.96
75656;BME280;64252;51.094;13.714;2022-11-28T09:50:11;100466.19;;;4.89;75.67
75656;BME280;64252;51.094;13.714;2022-11-28T09:55:58;100465.38;;;4.89;75.05
75656;BME280;64252;51.094;13.714;2022-11-28T09:58:47;100457.78;;;4.77;75.68
75656;BME280;64252;51.094;13.714;2022-11-28T10:06:28;100451.34;;;4.76;75.96
75656;BME280;64252;51.094;13.714;2022-11-28T10:20:11;100438.44;;;4.84;74.92
75656;BME280;64252;51.094;13.714;2022-11-28T10:22:58;100442.97;;;4.89;75.85
75656;BME280;64252;51.094;13.714;2022-11-28T10:25:30;100451.47;;;5.04;75.64
75656;BME280;64252;51.094;13.714;2022-11-28T10:27:57;100445.16;;;5.19;74.61
75656;BME280;64252;51.094;13.714;2022-11-28T10:30:30;100445.06;;;5.16;74.75
75656;BME280;64252;51.094;13.714;2022-11-28T10:33:11;100450.41;;;5.09;74.58
75656;BME280;64252;51.094;13.714;2022-11-28T10:35:49;100441.06;;;5.29;73.78
75656;BME280;64252;51.094;13.714;2022-11-28T10:38:17;100440.03;;;5.21;74.58
75656;BME280;64252;51.094;13.714;2022-11-28T10:40:58;100439.09;;;5.29;73.75
75656;BME280;64252;51.094;13.714;2022-11-28T10:57:37;100430.16;;;5.64;72.56
75656;BME280;64252;51.094;13.714;2022-11-28T11:00:12;100426.53;;;5.51;73.36
75656;BME280;64252;51.094;13.714;2022-11-28T11:02:48;100428.66;;;5.42;73.67
75656;BME280;64252;51.094;13.714;2022-11-28T11:05:24;100428.81;;;5.46;72.95
75656;BME280;64252;51.094;13.714;2022-11-28T11:07:53;100434.59;;;5.53;73.30
75656;BME280;64252;51.094;13.714;2022-11-28T11:10:24;100430.31;;;5.43;73.20
75656;BME280;64252;51.094;13.714;2022-11-28T11:12:51;100426.09;;;5.49;74.16
75656;BME280;64252;51.094;13.714;2022-11-28T11:17:46;100426.69;;;5.55;74.12
75656;BME280;64252;51.094;13.714;2022-11-28T11:20:46;100425.00;;;5.66;73.35
75656;BME280;64252;51.094;13.714;2022-11-28T11:25:52;100417.50;;;5.70;73.42
75656;BME280;64252;51.094;13.714;2022-11-28T11:31:01;100402.81;;;5.61;72.56
75656;BME280;64252;51.094;13.714;2022-11-28T11:33:35;100403.06;;;5.68;72.48
75656;BME280;64252;51.094;13.714;2022-11-28T11:36:03;100407.94;;;5.71;72.78
75656;BME280;64252;51.094;13.714;2022-11-28T11:38:32;100402.56;;;5.78;72.76
75656;BME280;64252;51.094;13.714;2022-11-28T11:41:17;100403.50;;;5.70;72.55
75656;BME280;64252;51.094;13.714;2022-11-28T11:43:42;100409.56;;;5.72;73.37
75656;BME280;64252;51.094;13.714;2022-11-28T11:46:13;100409.25;;;5.61;72.07
75656;BME280;64252;51.094;13.714;2022-11-28T11:48:41;100418.38;;;5.58;73.22
75656;BME280;64252;51.094;13.714;2022-11-28T11:51:23;100410.97;;;5.66;72.21
75656;BME280;64252;51.094;13.714;2022-11-28T11:54:14;100411.66;;;5.75;74.04
75656;BME280;64252;51.094;13.714;2022-11-28T11:56:43;100415.66;;;5.74;72.32
75656;BME280;64252;51.094;13.714;2022-11-28T11:59:30;100411.22;;;5.73;72.78
75656;BME280;64252;51.094;13.714;2022-11-28T12:02:01;100425.56;;;5.71;72.20
75656;BME280;64252;51.094;13.714;2022-11-28T12:04:36;100421.25;;;5.74;71.14
75656;BME280;64252;51.094;13.714;2022-11-28T12:07:05;100419.69;;;5.77;71.83
75656;BME280;64252;51.094;13.714;2022-11-28T12:09:40;100413.09;;;5.69;71.53
75656;BME280;64252;51.094;13.714;2022-11-28T12:12:21;100410.06;;;5.62;72.19
75656;BME280;64252;51.094;13.714;2022-11-28T12:14:48;100427.50;;;5.55;72.31
75656;BME280;64252;51.094;13.714;2022-11-28T12:28:30;100417.44;;;5.94;72.26
75656;BME280;64252;51.094;13.714;2022-11-28T12:38:59;100399.03;;;5.81;72.47
75656;BME280;64252;51.094;13.714;2022-11-28T12:42:07;100398.06;;;5.89;72.08
75656;BME280;64252;51.094;13.714;2022-11-28T13:10:20;100387.72;;;5.38;73.43
75656;BME280;64252;51.094;13.714;2022-11-28T13:15:12;100394.72;;;5.44;72.93
75656;BME280;64252;51.094;13.714;2022-11-28T13:17:47;100383.88;;;5.42;72.60
75656;BME280;64252;51.094;13.714;2022-11-28T13:28:20;100401.72;;;5.38;73.88
75656;BME280;64252;51.094;13.714;2022-11-28T13:30:51;100388.22;;;5.27;72.91
75656;BME280;64252;51.094;13.714;2022-11-28T13:35:54;100386.38;;;5.19;74.47
75656;BME280;64252;51.094;13.714;2022-11-28T13:38:28;100397.13;;;5.17;73.65
75656;BME280;64252;51.094;13.714;2022-11-28T13:41:18;100382.19;;;5.13;74.25
75656;BME280;64252;51.094;13.714;2022-11-28T13:46:42;100382.47;;;5.08;73.63
75656;BME280;64252;51.094;13.714;2022-11-28T13:49:28;100390.28;;;5.03;75.93
75656;BME280;64252;51.094;13.714;2022-11-28T13:54:43;100388.97;;;5.00;74.31
75656;BME280;64252;51.094;13.714;2022-11-28T13:57:28;100392.50;;;4.97;74.27
75656;BME280;64252;51.094;13.714;2022-11-28T13:59:57;100381.53;;;4.92;74.71
75656;BME280;64252;51.094;13.714;2022-11-28T14:02:46;100383.84;;;4.90;75.18
75656;BME280;64252;51.094;13.714;2022-11-28T14:05:33;100379.78;;;4.88;74.93
75656;BME280;64252;51.094;13.714;2022-11-28T14:08:01;100383.16;;;4.81;74.64
75656;BME280;64252;51.094;13.714;2022-11-28T14:10:55;100389.00;;;4.76;75.60
75656;BME280;64252;51.094;13.714;2022-11-28T14:13:50;100391.34;;;4.74;74.94
75656;BME280;64252;51.094;13.714;2022-11-28T14:27:03;100393.69;;;4.60;76.78
75656;BME280;64252;51.094;13.714;2022-11-28T14:29:50;100379.22;;;4.58;76.72
75656;BME280;64252;51.094;13.714;2022-11-28T14:32:37;100386.66;;;4.54;77.67
75656;BME280;64252;51.094;13.714;2022-11-28T14:35:05;100396.94;;;4.50;76.88
75656;BME280;64252;51.094;13.714;2022-11-28T14:37:52;100378.50;;;4.49;77.27
75656;BME280;64252;51.094;13.714;2022-11-28T14:43:31;100387.13;;;4.43;77.10
75656;BME280;64252;51.094;13.714;2022-11-28T14:46:19;100385.53;;;4.43;76.88
75656;BME280;64252;51.094;13.714;2022-11-28T14:49:08;100382.34;;;4.44;76.44
75656;BME280;64252;51.094;13.714;2022-11-28T14:54:33;100389.81;;;4.40;77.90
75656;BME280;64252;51.094;13.714;2022-11-28T14:57:19;100386.19;;;4.39;77.96
75656;BME280;64252;51.094;13.714;2022-11-28T14:59:47;100390.63;;;4.40;77.49
75656;BME280;64252;51.094;13.714;2022-11-28T15:14:50;100398.09;;;4.36;77.55
75656;BME280;64252;51.094;13.714;2022-11-28T15:17:23;100390.84;;;4.35;78.37
75656;BME280;64252;51.094;13.714;2022-11-28T15:19:50;100390.84;;;4.35;77.38
75656;BME280;64252;51.094;13.714;2022-11-28T15:22:45;100388.41;;;4.34;79.62
75656;BME280;64252;51.094;13.714;2022-11-28T15:25:25;100386.41;;;4.34;78.22
75656;BME280;64252;51.094;13.714;2022-11-28T15:27:51;100388.75;;;4.32;78.49
75656;BME280;64252;51.094;13.714;2022-11-28T15:30:19;100396.44;;;4.35;78.10
75656;BME280;64252;51.094;13.714;2022-11-28T15:32:47;100387.56;;;4.33;79.04
75656;BME280;64252;51.094;13.714;2022-11-28T15:35:16;100397.59;;;4.34;78.46
75656;BME280;64252;51.094;13.714;2022-11-28T15:37:48;100390.38;;;4.33;78.76
75656;BME280;64252;51.094;13.714;2022-11-28T15:40:17;100392.50;;;4.36;78.26
75656;BME280;64252;51.094;13.714;2022-11-28T15:42:47;100389.31;;;4.38;78.66
75656;BME280;64252;51.094;13.714;2022-11-28T15:47:52;100392.50;;;4.36;78.27
75656;BME280;64252;51.094;13.714;2022-11-28T15:50:31;100392.50;;;4.36;77.84
75656;BME280;64252;51.094;13.714;2022-11-28T15:53:15;100392.50;;;4.36;78.80
75656;BME280;64252;51.094;13.714;2022-11-28T15:55:42;100394.81;;;4.34;78.41
75656;BME280;64252;51.094;13.714;2022-11-28T15:58:21;100390.03;;;4.35;78.96
75656;BME280;64252;51.094;13.714;2022-11-28T16:00:53;100390.38;;;4.33;78.61
75656;BME280;64252;51.094;13.714;2022-11-28T16:03:24;100398.41;;;4.35;78.33
75656;BME280;64252;51.094;13.714;2022-11-28T16:05:51;100404.00;;;4.35;79.45
75656;BME280;64252;51.094;13.714;2022-11-28T16:08:26;100404.34;;;4.33;79.30
75656;BME280;64252;51.094;13.714;2022-11-28T16:10:52;100402.03;;;4.35;79.25
75656;BME280;64252;51.094;13.714;2022-11-28T16:13:21;100399.25;;;4.35;79.12
75656;BME280;64252;51.094;13.714;2022-11-28T16:15:51;100394.34;;;4.32;79.43
75656;BME280;64252;51.094;13.714;2022-11-28T16:18:19;100394.81;;;4.34;79.57
75656;BME280;64252;51.094;13.714;2022-11-28T16:20:45;100390.50;;;4.37;79.01
75656;BME280;64252;51.094;13.714;2022-11-28T16:23:20;100390.84;;;4.35;79.33